Terminal Aerodrome Forecast
Issued by NWS

Home | Current Version | Previous Version | Text Only | Print | Product List | Glossary On
Versions: 1 2 3 4 5 6 7 8 9 10 11 12 13 14 15 16 17 18 19 20 21 22 23 24 25 26
000
FTUS41 KBOX 240531
TAFBED
TAF
KBED 240531Z 2406/2506 30013G27KT P6SM BKN050
     FM240700 30014G27KT P6SM SCT060
     FM241400 31022G36KT P6SM FEW250
     FM250000 32013G26KT P6SM FEW250
     FM250200 31009KT P6SM FEW250=

USA.gov is the U.S. government's official web portal to all federal, state and local government web resources and services.